sensor_id;sensor_type;location;lat;lon;timestamp;P1;durP1;ratioP1;P2;durP2;ratioP2
22863;SDS011;11599;49.882;8.680;2022-08-19T00:02:34;17.90;;;12.60;;
22863;SDS011;11599;49.882;8.680;2022-08-19T00:12:57;17.25;;;12.18;;
22863;SDS011;11599;49.882;8.680;2022-08-19T00:23:18;19.70;;;12.95;;
22863;SDS011;11599;49.882;8.680;2022-08-19T00:33:41;20.95;;;13.25;;
22863;SDS011;11599;49.882;8.680;2022-08-19T00:44:04;21.90;;;14.18;;
22863;SDS011;11599;49.882;8.680;2022-08-19T00:54:27;18.55;;;12.35;;
22863;SDS011;11599;49.882;8.680;2022-08-19T01:04:51;24.92;;;13.60;;
22863;SDS011;11599;49.882;8.680;2022-08-19T01:15:15;18.70;;;12.60;;
22863;SDS011;11599;49.882;8.680;2022-08-19T01:25:41;21.52;;;13.55;;
22863;SDS011;11599;49.882;8.680;2022-08-19T01:36:04;23.02;;;12.68;;
22863;SDS011;11599;49.882;8.680;2022-08-19T01:46:27;21.20;;;13.07;;
22863;SDS011;11599;49.882;8.680;2022-08-19T01:56:49;18.77;;;12.38;;
22863;SDS011;11599;49.882;8.680;2022-08-19T02:07:12;19.20;;;12.02;;
22863;SDS011;11599;49.882;8.680;2022-08-19T02:17:34;16.13;;;11.43;;
22863;SDS011;11599;49.882;8.680;2022-08-19T02:27:56;19.48;;;12.23;;
22863;SDS011;11599;49.882;8.680;2022-08-19T02:38:18;20.92;;;12.40;;
22863;SDS011;11599;49.882;8.680;2022-08-19T02:48:51;19.85;;;12.43;;
22863;SDS011;11599;49.882;8.680;2022-08-19T02:59:12;18.45;;;11.68;;
22863;SDS011;11599;49.882;8.680;2022-08-19T03:09:37;21.17;;;11.18;;
22863;SDS011;11599;49.882;8.680;2022-08-19T03:19:58;21.30;;;11.68;;
22863;SDS011;11599;49.882;8.680;2022-08-19T03:30:24;18.95;;;12.27;;
22863;SDS011;11599;49.882;8.680;2022-08-19T03:40:45;19.55;;;11.60;;
22863;SDS011;11599;49.882;8.680;2022-08-19T03:51:14;18.45;;;11.85;;
22863;SDS011;11599;49.882;8.680;2022-08-19T04:01:36;18.00;;;11.38;;
22863;SDS011;11599;49.882;8.680;2022-08-19T04:11:59;18.65;;;11.50;;
22863;SDS011;11599;49.882;8.680;2022-08-19T04:22:21;18.30;;;11.70;;
22863;SDS011;11599;49.882;8.680;2022-08-19T04:32:43;18.35;;;12.05;;
22863;SDS011;11599;49.882;8.680;2022-08-19T04:43:05;18.65;;;11.70;;
22863;SDS011;11599;49.882;8.680;2022-08-19T04:53:28;20.50;;;12.52;;
22863;SDS011;11599;49.882;8.680;2022-08-19T05:03:50;17.15;;;11.70;;
22863;SDS011;11599;49.882;8.680;2022-08-19T05:14:13;21.40;;;11.70;;
22863;SDS011;11599;49.882;8.680;2022-08-19T05:24:35;19.13;;;11.93;;
22863;SDS011;11599;49.882;8.680;2022-08-19T05:34:58;19.80;;;11.77;;
22863;SDS011;11599;49.882;8.680;2022-08-19T05:45:20;22.48;;;12.93;;
22863;SDS011;11599;49.882;8.680;2022-08-19T05:55:43;16.90;;;11.35;;
22863;SDS011;11599;49.882;8.680;2022-08-19T06:06:05;17.85;;;12.18;;
22863;SDS011;11599;49.882;8.680;2022-08-19T06:16:29;21.90;;;12.65;;
22863;SDS011;11599;49.882;8.680;2022-08-19T06:26:52;19.70;;;12.80;;
22863;SDS011;11599;49.882;8.680;2022-08-19T06:37:17;20.45;;;11.40;;
22863;SDS011;11599;49.882;8.680;2022-08-19T06:47:38;16.23;;;9.43;;
22863;SDS011;11599;49.882;8.680;2022-08-19T06:58:02;20.17;;;10.15;;
22863;SDS011;11599;49.882;8.680;2022-08-19T07:08:24;12.48;;;8.50;;
22863;SDS011;11599;49.882;8.680;2022-08-19T07:18:48;12.48;;;8.40;;
22863;SDS011;11599;49.882;8.680;2022-08-19T07:29:10;15.52;;;8.45;;
22863;SDS011;11599;49.882;8.680;2022-08-19T07:39:34;15.35;;;8.35;;
22863;SDS011;11599;49.882;8.680;2022-08-19T07:49:56;10.65;;;6.88;;
22863;SDS011;11599;49.882;8.680;2022-08-19T08:00:19;10.90;;;6.65;;
22863;SDS011;11599;49.882;8.680;2022-08-19T08:10:40;8.10;;;6.20;;
22863;SDS011;11599;49.882;8.680;2022-08-19T08:21:04;9.30;;;5.30;;
22863;SDS011;11599;49.882;8.680;2022-08-19T08:31:25;6.22;;;4.40;;
22863;SDS011;11599;49.882;8.680;2022-08-19T08:41:49;5.60;;;4.13;;
22863;SDS011;11599;49.882;8.680;2022-08-19T08:52:15;8.80;;;3.70;;
22863;SDS011;11599;49.882;8.680;2022-08-19T09:02:39;6.85;;;3.88;;
22863;SDS011;11599;49.882;8.680;2022-08-19T09:13:04;5.75;;;3.78;;
22863;SDS011;11599;49.882;8.680;2022-08-19T09:23:29;6.10;;;3.50;;
22863;SDS011;11599;49.882;8.680;2022-08-19T09:33:52;5.28;;;3.53;;
22863;SDS011;11599;49.882;8.680;2022-08-19T09:44:18;8.05;;;3.75;;
22863;SDS011;11599;49.882;8.680;2022-08-19T09:54:40;6.30;;;4.63;;
22863;SDS011;11599;49.882;8.680;2022-08-19T10:05:03;6.07;;;4.47;;
22863;SDS011;11599;49.882;8.680;2022-08-19T10:15:42;7.47;;;4.90;;
22863;SDS011;11599;49.882;8.680;2022-08-19T10:26:06;5.63;;;4.07;;
22863;SDS011;11599;49.882;8.680;2022-08-19T10:36:28;6.85;;;4.90;;
22863;SDS011;11599;49.882;8.680;2022-08-19T10:46:51;6.50;;;5.10;;
22863;SDS011;11599;49.882;8.680;2022-08-19T10:57:13;8.75;;;5.43;;
22863;SDS011;11599;49.882;8.680;2022-08-19T11:07:36;9.73;;;4.38;;
22863;SDS011;11599;49.882;8.680;2022-08-19T11:17:58;7.65;;;4.82;;
22863;SDS011;11599;49.882;8.680;2022-08-19T11:28:21;5.50;;;4.13;;
22863;SDS011;11599;49.882;8.680;2022-08-19T11:38:43;4.85;;;4.35;;
22863;SDS011;11599;49.882;8.680;2022-08-19T11:49:06;5.97;;;4.75;;
22863;SDS011;11599;49.882;8.680;2022-08-19T11:59:29;9.10;;;5.50;;
22863;SDS011;11599;49.882;8.680;2022-08-19T12:09:52;7.55;;;5.97;;
22863;SDS011;11599;49.882;8.680;2022-08-19T12:20:15;7.00;;;6.07;;
22863;SDS011;11599;49.882;8.680;2022-08-19T12:30:38;7.28;;;6.53;;
22863;SDS011;11599;49.882;8.680;2022-08-19T12:41:00;7.22;;;6.07;;
22863;SDS011;11599;49.882;8.680;2022-08-19T12:51:24;6.38;;;5.50;;
22863;SDS011;11599;49.882;8.680;2022-08-19T13:01:47;5.55;;;4.57;;
22863;SDS011;11599;49.882;8.680;2022-08-19T13:12:09;7.20;;;3.72;;
22863;SDS011;11599;49.882;8.680;2022-08-19T13:22:33;5.10;;;3.25;;
22863;SDS011;11599;49.882;8.680;2022-08-19T13:32:57;3.35;;;3.00;;
22863;SDS011;11599;49.882;8.680;2022-08-19T13:43:35;4.43;;;2.92;;
22863;SDS011;11599;49.882;8.680;2022-08-19T13:53:58;3.60;;;3.25;;
22863;SDS011;11599;49.882;8.680;2022-08-19T14:04:20;3.35;;;2.97;;
22863;SDS011;11599;49.882;8.680;2022-08-19T14:14:42;4.22;;;2.85;;
22863;SDS011;11599;49.882;8.680;2022-08-19T14:25:05;2.70;;;2.50;;
22863;SDS011;11599;49.882;8.680;2022-08-19T14:35:29;5.93;;;2.65;;
22863;SDS011;11599;49.882;8.680;2022-08-19T14:45:52;2.88;;;2.22;;
22863;SDS011;11599;49.882;8.680;2022-08-19T14:56:17;3.47;;;3.00;;
22863;SDS011;11599;49.882;8.680;2022-08-19T15:06:39;6.60;;;2.95;;
22863;SDS011;11599;49.882;8.680;2022-08-19T15:17:04;4.18;;;2.40;;
22863;SDS011;11599;49.882;8.680;2022-08-19T15:27:26;3.60;;;3.20;;
22863;SDS011;11599;49.882;8.680;2022-08-19T15:37:49;7.43;;;3.40;;
22863;SDS011;11599;49.882;8.680;2022-08-19T15:48:11;7.47;;;3.30;;
22863;SDS011;11599;49.882;8.680;2022-08-19T15:58:33;3.55;;;3.00;;
22863;SDS011;11599;49.882;8.680;2022-08-19T16:09:13;4.38;;;3.00;;
22863;SDS011;11599;49.882;8.680;2022-08-19T16:19:36;4.25;;;2.78;;
22863;SDS011;11599;49.882;8.680;2022-08-19T16:29:57;3.88;;;3.30;;
22863;SDS011;11599;49.882;8.680;2022-08-19T16:40:20;3.67;;;2.97;;
22863;SDS011;11599;49.882;8.680;2022-08-19T16:50:42;4.38;;;3.10;;
22863;SDS011;11599;49.882;8.680;2022-08-19T17:01:06;5.25;;;3.40;;
22863;SDS011;11599;49.882;8.680;2022-08-19T17:11:29;5.05;;;3.50;;
22863;SDS011;11599;49.882;8.680;2022-08-19T17:21:54;5.45;;;3.92;;
22863;SDS011;11599;49.882;8.680;2022-08-19T17:32:16;7.18;;;4.28;;
22863;SDS011;11599;49.882;8.680;2022-08-19T17:42:40;6.38;;;4.70;;
22863;SDS011;11599;49.882;8.680;2022-08-19T17:53:02;5.93;;;4.50;;
22863;SDS011;11599;49.882;8.680;2022-08-19T18:03:25;6.13;;;4.13;;
22863;SDS011;11599;49.882;8.680;2022-08-19T18:13:49;6.60;;;3.95;;
22863;SDS011;11599;49.882;8.680;2022-08-19T18:24:13;5.32;;;3.47;;
22863;SDS011;11599;49.882;8.680;2022-08-19T18:34:34;7.88;;;3.80;;
22863;SDS011;11599;49.882;8.680;2022-08-19T18:44:57;6.85;;;4.22;;
22863;SDS011;11599;49.882;8.680;2022-08-19T18:55:45;6.55;;;4.43;;
22863;SDS011;11599;49.882;8.680;2022-08-19T19:06:10;6.95;;;4.20;;
22863;SDS011;11599;49.882;8.680;2022-08-19T19:16:31;6.30;;;4.10;;
22863;SDS011;11599;49.882;8.680;2022-08-19T19:26:56;5.72;;;4.13;;
22863;SDS011;11599;49.882;8.680;2022-08-19T19:37:19;8.93;;;4.40;;
22863;SDS011;11599;49.882;8.680;2022-08-19T19:47:43;5.90;;;3.95;;
22863;SDS011;11599;49.882;8.680;2022-08-19T19:58:06;9.00;;;4.13;;
22863;SDS011;11599;49.882;8.680;2022-08-19T20:08:29;5.97;;;4.35;;
22863;SDS011;11599;49.882;8.680;2022-08-19T20:19:10;6.13;;;4.28;;
22863;SDS011;11599;49.882;8.680;2022-08-19T20:29:33;7.68;;;5.00;;
22863;SDS011;11599;49.882;8.680;2022-08-19T20:39:54;7.70;;;4.53;;
22863;SDS011;11599;49.882;8.680;2022-08-19T20:50:17;6.85;;;5.00;;
22863;SDS011;11599;49.882;8.680;2022-08-19T21:00:39;6.95;;;4.75;;
22863;SDS011;11599;49.882;8.680;2022-08-19T21:11:06;10.00;;;5.50;;
22863;SDS011;11599;49.882;8.680;2022-08-19T21:21:29;8.43;;;4.93;;
22863;SDS011;11599;49.882;8.680;2022-08-19T21:31:53;7.18;;;5.28;;
22863;SDS011;11599;49.882;8.680;2022-08-19T21:42:15;8.50;;;5.17;;
22863;SDS011;11599;49.882;8.680;2022-08-19T21:52:38;8.57;;;5.33;;
22863;SDS011;11599;49.882;8.680;2022-08-19T22:03:00;8.63;;;5.00;;
22863;SDS011;11599;49.882;8.680;2022-08-19T22:13:23;8.57;;;4.72;;
22863;SDS011;11599;49.882;8.680;2022-08-19T22:23:45;8.07;;;5.13;;
22863;SDS011;11599;49.882;8.680;2022-08-19T22:34:08;7.28;;;4.90;;
22863;SDS011;11599;49.882;8.680;2022-08-19T22:44:30;7.40;;;4.30;;
22863;SDS011;11599;49.882;8.680;2022-08-19T22:54:54;7.70;;;4.20;;
22863;SDS011;11599;49.882;8.680;2022-08-19T23:05:17;14.07;;;4.47;;
22863;SDS011;11599;49.882;8.680;2022-08-19T23:15:40;5.87;;;4.20;;
22863;SDS011;11599;49.882;8.680;2022-08-19T23:26:01;7.17;;;4.70;;
22863;SDS011;11599;49.882;8.680;2022-08-19T23:36:24;8.80;;;4.60;;
22863;SDS011;11599;49.882;8.680;2022-08-19T23:46:46;9.00;;;3.95;;
22863;SDS011;11599;49.882;8.680;2022-08-19T23:57:09;8.27;;;3.90;;
